Time;durP1;ratioP1;P1;durP2;ratioP2;P2;SDS_P1;SDS_P2;PMS_P1;PMS_P2;Temp;Humidity;BMP_temperature;BMP_pressure;BME280_temperature;BME280_humidity;BME280_pressure;Samples;Min_cycle;Max_cycle;Signal;HPM_P1;HPM_P2
2023/06/06 00:01:43;;;;;;;1.55;1.30;;;16.80;99.90;;;;;;4127871;28;20042;-63
2023/06/06 00:03:45;;;;;;;1.67;1.50;;;16.80;99.90;;;;;;4128300;28;20116;-61
2023/06/06 00:05:48;;;;;;;1.30;1.20;;;16.80;99.90;;;;;;4129706;28;20085;-62
2023/06/06 00:07:49;;;;;;;2.70;1.73;;;16.80;99.90;;;;;;4128946;28;20046;-69
2023/06/06 00:09:50;;;;;;;1.60;1.10;;;16.70;99.90;;;;;;4130055;28;20396;-68
2023/06/06 00:11:51;;;;;;;1.55;1.40;;;16.70;99.90;;;;;;4128895;28;20054;-66
2023/06/06 00:13:52;;;;;;;3.10;1.42;;;16.70;99.90;;;;;;4128126;28;20110;-70
2023/06/06 00:15:57;;;;;;;1.60;1.40;;;16.70;99.90;;;;;;4128467;28;20487;-64
2023/06/06 00:17:59;;;;;;;2.88;1.75;;;16.70;99.90;;;;;;4129799;28;20031;-67
2023/06/06 00:20:08;;;;;;;2.20;1.77;;;16.70;99.90;;;;;;4128267;28;20042;-63
2023/06/06 00:22:11;;;;;;;3.13;1.88;;;16.60;99.90;;;;;;4129616;28;20101;-71
2023/06/06 00:24:12;;;;;;;3.17;1.98;;;16.60;99.90;;;;;;4128715;28;20030;-61
2023/06/06 00:26:13;;;;;;;1.92;1.63;;;16.60;99.90;;;;;;4128500;28;20089;-72
2023/06/06 00:28:15;;;;;;;1.77;1.67;;;16.60;99.90;;;;;;4128762;28;20092;-65
2023/06/06 00:30:16;;;;;;;3.13;2.10;;;16.60;99.90;;;;;;4129238;28;20110;-68
2023/06/06 00:32:17;;;;;;;1.85;1.63;;;16.50;99.90;;;;;;4128894;28;20067;-63
2023/06/06 00:34:19;;;;;;;3.45;1.50;;;16.50;99.90;;;;;;4127991;28;20034;-65
2023/06/06 00:36:20;;;;;;;1.73;1.60;;;16.50;99.90;;;;;;4128833;28;20537;-62
2023/06/06 00:38:21;;;;;;;4.93;1.60;;;16.50;99.90;;;;;;4127782;28;20356;-61
2023/06/06 00:40:22;;;;;;;4.25;1.90;;;16.50;99.90;;;;;;4128866;28;20530;-62
2023/06/06 00:42:23;;;;;;;2.10;1.60;;;16.60;99.90;;;;;;4127404;28;20054;-66
2023/06/06 00:44:24;;;;;;;3.42;1.70;;;16.60;99.90;;;;;;4131894;28;20038;-70
2023/06/06 00:46:26;;;;;;;3.40;1.63;;;16.60;99.90;;;;;;4130999;28;20022;-67
2023/06/06 00:48:27;;;;;;;2.80;1.50;;;16.60;99.90;;;;;;4132146;28;20034;-65
2023/06/06 00:50:30;;;;;;;3.35;1.50;;;16.60;99.90;;;;;;4130816;28;20434;-62
2023/06/06 00:52:31;;;;;;;1.35;1.25;;;16.60;99.90;;;;;;4131970;28;20165;-75
2023/06/06 00:54:34;;;;;;;1.42;1.33;;;16.50;99.90;;;;;;4131368;28;20038;-62
2023/06/06 00:56:36;;;;;;;3.70;1.60;;;16.50;99.90;;;;;;4131784;28;20034;-64
2023/06/06 00:58:37;;;;;;;3.88;1.80;;;16.50;99.90;;;;;;4131251;28;20471;-67
2023/06/06 01:00:40;;;;;;;2.20;1.80;;;16.60;99.90;;;;;;4131479;28;20026;-62
2023/06/06 01:02:43;;;;;;;2.25;1.50;;;16.50;99.90;;;;;;4131362;28;20042;-68
2023/06/06 01:04:45;;;;;;;2.22;1.92;;;16.50;99.90;;;;;;4130089;28;20049;-62
2023/06/06 01:06:46;;;;;;;2.70;1.45;;;16.50;99.90;;;;;;4130688;28;20108;-69
2023/06/06 01:08:48;;;;;;;1.77;1.50;;;16.50;99.90;;;;;;4130069;28;20050;-62
2023/06/06 01:10:51;;;;;;;3.47;2.03;;;16.40;99.90;;;;;;4131505;28;20450;-62
2023/06/06 01:12:55;;;;;;;3.05;1.42;;;16.40;99.90;;;;;;4128535;28;20507;-62
2023/06/06 01:15:10;;;;;;;3.05;1.52;;;16.40;99.90;;;;;;4131620;28;20034;-61
2023/06/06 01:17:13;;;;;;;2.33;1.80;;;16.40;99.90;;;;;;4130692;28;20093;-62
2023/06/06 01:19:20;;;;;;;2.22;1.58;;;16.40;99.90;;;;;;4115859;28;20034;-67
2023/06/06 01:21:21;;;;;;;2.65;1.42;;;16.40;99.90;;;;;;4118766;28;20120;-64
2023/06/06 01:23:23;;;;;;;1.60;1.40;;;16.40;99.90;;;;;;4132688;28;20027;-72
2023/06/06 01:25:25;;;;;;;2.65;1.50;;;16.40;99.90;;;;;;4130551;28;20085;-61
2023/06/06 01:27:28;;;;;;;2.97;1.48;;;16.40;99.90;;;;;;4131613;28;20046;-64
2023/06/06 01:29:30;;;;;;;12.30;1.83;;;16.40;99.90;;;;;;4130167;28;20101;-62
2023/06/06 01:31:41;;;;;;;2.97;1.42;;;16.40;99.90;;;;;;4131207;28;20541;-62
2023/06/06 01:33:55;;;;;;;1.70;1.45;;;16.40;99.90;;;;;;4130919;28;20081;-63
2023/06/06 01:36:05;;;;;;;5.00;1.88;;;16.40;99.90;;;;;;4131592;28;20442;-62
2023/06/06 01:38:13;;;;;;;2.13;1.48;;;16.40;99.90;;;;;;4130195;28;20026;-64
2023/06/06 01:40:18;;;;;;;4.22;2.33;;;16.30;99.90;;;;;;4130646;28;20502;-65
2023/06/06 01:42:21;;;;;;;1.85;1.60;;;16.30;99.90;;;;;;4130126;28;20031;-65
2023/06/06 01:44:22;;;;;;;1.88;1.48;;;16.40;99.90;;;;;;4131073;28;20047;-63
2023/06/06 01:46:26;;;;;;;3.10;1.75;;;16.30;99.90;;;;;;4129793;28;20487;-62
2023/06/06 01:48:28;;;;;;;2.80;1.55;;;16.30;99.90;;;;;;4131044;28;20081;-73
2023/06/06 01:50:30;;;;;;;3.40;1.90;;;16.30;99.90;;;;;;4131098;28;20069;-70
2023/06/06 01:52:37;;;;;;;2.65;1.73;;;16.30;99.90;;;;;;4130510;28;20499;-63
2023/06/06 01:54:40;;;;;;;2.90;1.52;;;16.30;99.90;;;;;;4130241;28;20057;-63
2023/06/06 01:56:41;;;;;;;2.47;1.75;;;16.30;99.90;;;;;;4130299;28;20042;-67
2023/06/06 01:58:42;;;;;;;2.70;1.60;;;16.30;99.90;;;;;;4131259;28;20022;-62
2023/06/06 02:00:44;;;;;;;1.90;1.50;;;16.30;99.90;;;;;;4130175;28;20450;-62
2023/06/06 02:02:45;;;;;;;2.65;1.80;;;16.30;99.90;;;;;;4131183;28;20072;-61
2023/06/06 02:04:48;;;;;;;4.28;1.70;;;16.30;99.90;;;;;;4130179;28;20482;-61
2023/06/06 02:06:49;;;;;;;2.25;1.67;;;16.30;99.90;;;;;;4131115;28;20088;-74
2023/06/06 02:08:50;;;;;;;2.58;1.63;;;16.30;99.90;;;;;;4129959;28;20085;-62
2023/06/06 02:10:51;;;;;;;2.35;1.80;;;16.30;99.90;;;;;;4131514;28;20038;-61
2023/06/06 02:12:52;;;;;;;4.35;1.65;;;16.30;99.90;;;;;;4129597;28;20047;-61
2023/06/06 02:14:57;;;;;;;2.17;1.70;;;16.30;99.90;;;;;;4130553;28;20034;-61
2023/06/06 02:16:58;;;;;;;3.88;1.75;;;16.30;99.90;;;;;;4129664;28;20042;-61
2023/06/06 02:18:59;;;;;;;4.15;1.52;;;16.30;99.90;;;;;;4130618;28;20096;-62
2023/06/06 02:21:00;;;;;;;2.97;2.08;;;16.30;99.90;;;;;;4144143;28;20088;-63
2023/06/06 02:23:01;;;;;;;2.33;1.60;;;16.30;99.90;;;;;;4129948;28;21068;-62
2023/06/06 02:25:03;;;;;;;1.90;1.80;;;16.30;99.90;;;;;;4130124;28;20081;-62
2023/06/06 02:27:09;;;;;;;2.65;1.67;;;16.30;99.90;;;;;;4130000;28;20051;-62
2023/06/06 02:29:10;;;;;;;3.58;1.90;;;16.30;99.90;;;;;;4130277;28;20078;-62
2023/06/06 02:31:14;;;;;;;2.45;1.70;;;16.30;99.90;;;;;;4129677;28;20030;-62
2023/06/06 02:33:16;;;;;;;2.72;1.90;;;16.30;99.90;;;;;;4129776;28;20054;-63
2023/06/06 02:35:21;;;;;;;3.40;1.67;;;16.30;99.90;;;;;;4129430;28;20030;-62
2023/06/06 02:37:23;;;;;;;2.88;1.98;;;16.30;99.90;;;;;;4130383;28;20038;-62
2023/06/06 02:39:24;;;;;;;3.95;1.67;;;16.30;99.90;;;;;;4129318;28;20061;-62
2023/06/06 02:41:26;;;;;;;3.47;1.85;;;16.30;99.90;;;;;;4130624;28;20390;-62
2023/06/06 02:43:27;;;;;;;3.42;2.00;;;16.30;99.90;;;;;;4129116;28;20776;-61
2023/06/06 02:45:28;;;;;;;4.57;1.98;;;16.30;99.90;;;;;;4129996;28;20089;-64
2023/06/06 02:47:29;;;;;;;2.25;1.92;;;16.30;99.90;;;;;;4128760;28;20101;-66
2023/06/06 02:49:30;;;;;;;3.45;2.00;;;16.30;99.90;;;;;;4129933;28;20026;-73
2023/06/06 02:51:31;;;;;;;2.67;2.00;;;16.20;99.90;;;;;;4143117;28;20092;-63
2023/06/06 02:53:33;;;;;;;3.40;2.35;;;16.20;99.90;;;;;;4126969;28;20066;-62
2023/06/06 02:55:34;;;;;;;2.92;1.80;;;16.30;99.90;;;;;;4131409;28;20034;-62
2023/06/06 02:57:35;;;;;;;4.18;1.98;;;16.30;99.90;;;;;;4145777;28;20041;-61
2023/06/06 02:59:36;;;;;;;5.70;1.77;;;16.30;99.90;;;;;;4145801;28;20548;-62
2023/06/06 03:01:42;;;;;;;5.30;2.28;;;16.30;99.90;;;;;;4145588;28;20030;-67
2023/06/06 03:03:43;;;;;;;2.08;1.67;;;16.30;99.90;;;;;;4145910;28;20045;-62
2023/06/06 03:05:51;;;;;;;3.42;2.10;;;16.30;99.90;;;;;;4144636;28;20080;-63
2023/06/06 03:07:52;;;;;;;4.75;2.10;;;16.30;99.90;;;;;;4135599;28;20066;-66
2023/06/06 03:09:53;;;;;;;3.13;1.90;;;16.30;99.90;;;;;;4128447;28;20490;-60
2023/06/06 03:11:54;;;;;;;2.83;2.03;;;16.30;99.90;;;;;;4130487;28;20039;-65
2023/06/06 03:13:55;;;;;;;2.47;2.03;;;16.30;99.90;;;;;;4128576;28;20038;-65
2023/06/06 03:15:56;;;;;;;3.33;2.00;;;16.40;99.90;;;;;;4129977;28;20031;-62
2023/06/06 03:17:57;;;;;;;2.70;2.15;;;16.40;99.90;;;;;;4128578;28;20050;-64
2023/06/06 03:19:58;;;;;;;3.38;2.13;;;16.40;99.90;;;;;;4129426;28;20042;-62
2023/06/06 03:22:00;;;;;;;3.08;1.92;;;16.50;99.90;;;;;;4128122;28;20085;-60
2023/06/06 03:24:01;;;;;;;3.13;1.65;;;16.60;99.90;;;;;;4130173;28;20034;-61
2023/06/06 03:26:03;;;;;;;3.38;2.13;;;16.60;99.90;;;;;;4127381;28;20529;-61
2023/06/06 03:28:05;;;;;;;2.35;1.88;;;16.70;99.90;;;;;;4129064;28;20054;-63
2023/06/06 03:30:06;;;;;;;7.97;1.92;;;16.70;99.90;;;;;;4128611;28;20093;-61
2023/06/06 03:32:08;;;;;;;5.85;2.17;;;16.80;99.90;;;;;;4129402;28;20093;-64
2023/06/06 03:34:09;;;;;;;5.20;2.25;;;16.80;99.90;;;;;;4132400;28;20017;-62
2023/06/06 03:36:11;;;;;;;3.38;2.08;;;16.90;99.90;;;;;;4127102;28;20093;-61
2023/06/06 03:38:12;;;;;;;2.47;1.85;;;16.90;99.90;;;;;;4129226;28;20088;-69
2023/06/06 03:40:13;;;;;;;4.15;1.73;;;17.00;99.90;;;;;;4128452;28;20544;-61
2023/06/06 03:42:14;;;;;;;5.68;2.08;;;17.20;99.90;;;;;;4136980;28;20037;-61
2023/06/06 03:44:15;;;;;;;5.00;2.20;;;17.20;99.90;;;;;;4144365;28;20846;-61
2023/06/06 03:46:16;;;;;;;4.30;2.58;;;17.20;99.90;;;;;;4145563;28;20101;-61
2023/06/06 03:48:17;;;;;;;6.82;2.50;;;17.20;99.90;;;;;;4144424;28;20077;-67
2023/06/06 03:50:19;;;;;;;7.07;2.00;;;17.40;99.90;;;;;;4139034;28;20101;-63
2023/06/06 03:52:20;;;;;;;3.53;2.08;;;17.60;99.90;;;;;;4127571;28;20072;-61
2023/06/06 03:54:21;;;;;;;2.88;2.15;;;17.90;99.90;;;;;;4128402;28;20046;-66
2023/06/06 03:56:23;;;;;;;2.30;2.10;;;18.10;99.90;;;;;;4128047;28;20038;-63
2023/06/06 03:58:25;;;;;;;3.35;1.88;;;18.30;99.90;;;;;;4129062;28;20030;-62
2023/06/06 04:00:26;;;;;;;2.83;1.88;;;18.70;99.90;;;;;;4127826;28;20046;-62
2023/06/06 04:02:31;;;;;;;5.40;2.03;;;19.00;99.90;;;;;;4128617;28;20019;-66
2023/06/06 04:04:32;;;;;;;4.97;2.08;;;19.20;99.90;;;;;;4127698;28;20101;-64
2023/06/06 04:06:33;;;;;;;3.17;1.73;;;19.10;99.90;;;;;;4128399;28;20096;-63
2023/06/06 04:08:35;;;;;;;2.50;1.73;;;19.20;99.90;;;;;;4128384;28;20061;-63
2023/06/06 04:10:36;;;;;;;5.13;1.70;;;19.20;99.90;;;;;;4127455;28;20080;-62
2023/06/06 04:12:40;;;;;;;5.45;1.90;;;19.20;99.90;;;;;;4128775;28;20142;-61
2023/06/06 04:14:41;;;;;;;3.47;2.05;;;19.40;99.90;;;;;;4126855;28;20046;-61
2023/06/06 04:16:43;;;;;;;4.18;2.30;;;19.40;99.90;;;;;;4127947;28;20042;-68
2023/06/06 04:18:44;;;;;;;3.22;2.60;;;19.70;99.90;;;;;;4127790;28;20030;-67
2023/06/06 04:20:46;;;;;;;5.75;2.30;;;19.90;99.90;;;;;;4128818;28;20034;-63
2023/06/06 04:22:47;;;;;;;3.83;1.80;;;19.90;99.90;;;;;;4127244;28;20030;-60
2023/06/06 04:24:48;;;;;;;4.43;2.20;;;19.90;99.90;;;;;;4125963;28;20042;-61
2023/06/06 04:26:49;;;;;;;5.03;1.83;;;20.10;99.90;;;;;;4127121;28;20073;-61
2023/06/06 04:28:53;;;;;;;5.72;2.22;;;20.30;99.90;;;;;;4143464;28;20038;-61
2023/06/06 04:30:55;;;;;;;3.13;2.15;;;20.40;99.90;;;;;;4127481;28;20034;-62
2023/06/06 04:32:57;;;;;;;2.78;1.95;;;20.40;99.90;;;;;;4128386;28;20030;-61
2023/06/06 04:34:58;;;;;;;4.75;2.00;;;20.30;99.90;;;;;;4128158;28;20081;-61
2023/06/06 04:37:06;;;;;;;3.60;1.92;;;20.50;99.90;;;;;;4128238;28;20077;-61
2023/06/06 04:39:08;;;;;;;2.53;1.92;;;20.80;99.90;;;;;;4127417;28;20418;-61
2023/06/06 04:41:10;;;;;;;3.63;1.77;;;21.30;99.90;;;;;;4127778;28;20096;-60
2023/06/06 04:43:11;;;;;;;8.40;2.13;;;21.80;99.90;;;;;;4128223;28;20042;-71
2023/06/06 04:45:13;;;;;;;4.30;1.88;;;22.00;99.90;;;;;;4127973;28;20058;-69
2023/06/06 04:47:18;;;;;;;2.90;1.90;;;22.10;99.90;;;;;;4128257;28;20499;-65
2023/06/06 04:49:20;;;;;;;3.55;1.50;;;22.00;99.90;;;;;;4127923;28;20089;-70
2023/06/06 04:51:33;;;;;;;3.25;2.13;;;22.00;99.90;;;;;;4128501;28;20038;-62
2023/06/06 04:53:43;;;;;;;2.95;1.83;;;21.90;99.90;;;;;;4127508;28;20118;-68
2023/06/06 04:55:46;;;;;;;3.75;1.95;;;21.80;99.90;;;;;;4128676;28;20085;-71
2023/06/06 04:57:47;;;;;;;2.10;1.75;;;22.00;99.90;;;;;;4127605;28;20113;-64
2023/06/06 04:59:52;;;;;;;6.20;2.13;;;21.90;99.90;;;;;;4128706;28;20093;-62
2023/06/06 05:01:55;;;;;;;3.95;2.20;;;22.00;99.90;;;;;;4126912;28;20046;-65
2023/06/06 05:03:56;;;;;;;3.80;2.10;;;22.20;99.90;;;;;;4128726;28;20100;-70
2023/06/06 05:05:57;;;;;;;4.20;2.40;;;22.30;99.90;;;;;;4127471;28;20093;-65
2023/06/06 05:07:59;;;;;;;4.13;2.20;;;22.60;99.90;;;;;;4128255;28;20101;-67
2023/06/06 05:10:00;;;;;;;2.70;2.05;;;22.80;99.90;;;;;;4127157;28;20038;-65
2023/06/06 05:12:01;;;;;;;2.90;1.90;;;23.00;99.90;;;;;;4128490;28;20486;-64
2023/06/06 05:14:02;;;;;;;4.28;1.98;;;22.80;99.90;;;;;;4127735;28;20034;-65
2023/06/06 05:16:04;;;;;;;3.80;2.08;;;22.70;99.90;;;;;;4126276;28;20817;-66
2023/06/06 05:18:05;;;;;;;7.25;2.40;;;22.60;99.90;;;;;;4127923;28;20138;-67
2023/06/06 05:20:10;;;;;;;4.50;2.00;;;22.50;99.90;;;;;;4127768;28;20077;-61
2023/06/06 05:22:13;;;;;;;5.25;2.25;;;22.40;99.90;;;;;;4127792;28;20014;-60
2023/06/06 05:24:14;;;;;;;4.90;3.75;;;22.50;99.90;;;;;;4127480;28;20470;-62
2023/06/06 05:26:16;;;;;;;6.90;2.90;;;22.70;99.90;;;;;;4127958;28;20043;-61
2023/06/06 05:28:17;;;;;;;2.38;2.05;;;22.80;99.90;;;;;;4127026;28;20105;-62
2023/06/06 05:30:18;;;;;;;2.75;2.00;;;23.10;99.90;;;;;;4131371;28;20026;-62
2023/06/06 05:32:19;;;;;;;5.20;2.17;;;23.20;99.90;;;;;;4130214;28;20549;-62
2023/06/06 05:34:20;;;;;;;6.47;2.03;;;23.30;99.90;;;;;;4131252;28;20081;-66
2023/06/06 05:36:22;;;;;;;5.95;2.17;;;23.40;99.90;;;;;;4130238;28;20096;-62
2023/06/06 05:38:24;;;;;;;2.35;2.00;;;23.00;99.90;;;;;;4131239;28;20076;-62
2023/06/06 05:40:25;;;;;;;5.53;2.28;;;23.40;99.90;;;;;;4130290;28;21141;-64
2023/06/06 05:42:26;;;;;;;1.85;1.65;;;23.70;99.90;;;;;;4131470;28;20097;-62
2023/06/06 05:44:27;;;;;;;2.63;2.00;;;23.30;99.90;;;;;;4130085;28;20085;-62
2023/06/06 05:46:28;;;;;;;3.28;2.25;;;22.70;99.90;;;;;;4130636;28;20046;-61
2023/06/06 05:48:29;;;;;;;3.30;1.88;;;22.50;99.90;;;;;;4130231;28;21388;-63
2023/06/06 05:50:31;;;;;;;2.10;1.90;;;22.60;99.90;;;;;;4130413;28;20034;-63
2023/06/06 05:52:32;;;;;;;7.47;2.15;;;22.80;99.90;;;;;;4129982;28;20534;-63
2023/06/06 05:54:34;;;;;;;5.25;1.85;;;22.70;99.90;;;;;;4128094;28;20092;-61
2023/06/06 05:56:35;;;;;;;11.38;2.33;;;22.60;99.90;;;;;;4130630;28;20022;-62
2023/06/06 05:58:37;;;;;;;2.70;2.17;;;22.90;99.90;;;;;;4129302;28;20092;-61
2023/06/06 06:00:38;;;;;;;6.32;2.33;;;22.80;99.90;;;;;;4131165;28;20022;-61
2023/06/06 06:02:41;;;;;;;2.35;1.75;;;22.40;99.90;;;;;;4129556;28;20626;-64
2023/06/06 06:04:42;;;;;;;5.15;2.22;;;22.50;99.90;;;;;;4130957;28;20030;-61
2023/06/06 06:06:47;;;;;;;4.45;1.95;;;22.40;99.90;;;;;;4129197;28;20049;-62
2023/06/06 06:08:49;;;;;;;2.13;1.77;;;22.30;99.90;;;;;;4130358;28;20074;-61
2023/06/06 06:10:50;;;;;;;4.00;1.85;;;22.40;99.90;;;;;;4129679;28;20034;-65
2023/06/06 06:12:52;;;;;;;1.70;1.60;;;22.60;99.90;;;;;;4130765;28;20074;-63
2023/06/06 06:14:53;;;;;;;3.35;1.77;;;22.30;99.90;;;;;;4129773;28;20023;-62
2023/06/06 06:16:54;;;;;;;2.85;1.73;;;22.20;99.90;;;;;;4129995;28;20443;-66
2023/06/06 06:18:55;;;;;;;6.25;1.75;;;22.40;99.90;;;;;;4129520;28;20093;-63
2023/06/06 06:20:56;;;;;;;2.47;1.60;;;22.60;99.90;;;;;;4129843;28;20038;-62
2023/06/06 06:22:57;;;;;;;3.85;1.85;;;22.80;99.90;;;;;;4129894;28;20077;-64
2023/06/06 06:24:59;;;;;;;1.73;1.63;;;22.90;99.90;;;;;;4129973;28;20470;-63
2023/06/06 06:27:00;;;;;;;4.82;2.38;;;22.80;99.90;;;;;;4130196;28;20475;-63
2023/06/06 06:29:01;;;;;;;5.40;2.40;;;22.90;99.90;;;;;;4129420;28;20038;-62
2023/06/06 06:31:02;;;;;;;2.58;2.00;;;23.30;99.90;;;;;;4130037;28;20026;-61
2023/06/06 06:33:04;;;;;;;3.83;1.98;;;23.10;99.90;;;;;;4129382;28;20424;-62
2023/06/06 06:35:06;;;;;;;3.70;1.70;;;22.80;99.90;;;;;;4130461;28;20104;-63
2023/06/06 06:37:07;;;;;;;3.72;2.00;;;22.70;99.90;;;;;;4128486;28;20109;-62
2023/06/06 06:39:09;;;;;;;2.00;1.80;;;22.60;99.90;;;;;;4129808;28;20046;-62
2023/06/06 06:41:10;;;;;;;2.10;1.55;;;22.50;99.90;;;;;;4128087;28;20077;-67
2023/06/06 06:43:11;;;;;;;2.15;1.88;;;22.60;99.90;;;;;;4130651;28;20030;-61
2023/06/06 06:45:14;;;;;;;4.82;2.03;;;22.90;99.90;;;;;;4128739;28;20553;-62
2023/06/06 06:47:15;;;;;;;3.03;1.65;;;23.00;99.90;;;;;;4129873;28;20046;-61
2023/06/06 06:49:17;;;;;;;2.92;1.25;;;23.10;99.90;;;;;;4129146;28;20034;-62
2023/06/06 06:51:19;;;;;;;2.45;2.00;;;23.30;99.90;;;;;;4129938;28;20111;-63
2023/06/06 06:53:23;;;;;;;2.05;1.85;;;23.50;99.90;;;;;;4127391;28;20035;-63
2023/06/06 06:55:25;;;;;;;4.72;2.13;;;23.50;99.90;;;;;;4129518;28;20418;-63
2023/06/06 06:57:28;;;;;;;5.22;1.92;;;23.70;99.90;;;;;;4129490;28;20462;-61
2023/06/06 06:59:29;;;;;;;4.72;1.92;;;23.60;99.90;;;;;;4129266;28;20457;-62
2023/06/06 07:01:32;;;;;;;3.42;1.70;;;23.80;99.90;;;;;;4129269;28;20034;-62
2023/06/06 07:03:34;;;;;;;3.42;1.52;;;23.50;99.90;;;;;;4128805;28;20085;-63
2023/06/06 07:05:35;;;;;;;6.50;1.50;;;23.30;99.90;;;;;;4130028;28;20026;-63
2023/06/06 07:07:44;;;;;;;4.30;2.00;;;23.20;99.90;;;;;;4128122;28;20038;-64
2023/06/06 07:09:45;;;;;;;3.72;2.28;;;23.40;99.90;;;;;;4129748;28;20499;-62
2023/06/06 07:11:46;;;;;;;3.35;1.80;;;23.30;99.90;;;;;;4129019;28;20446;-64
2023/06/06 07:13:48;;;;;;;2.28;1.58;;;23.40;99.90;;;;;;4129204;28;20403;-62
2023/06/06 07:15:49;;;;;;;1.98;1.70;;;23.80;99.90;;;;;;4128838;28;20019;-65
2023/06/06 07:17:51;;;;;;;5.82;1.67;;;24.10;99.90;;;;;;4129682;28;20026;-66
2023/06/06 07:19:52;;;;;;;3.03;1.60;;;24.00;99.90;;;;;;4127972;28;20096;-61
2023/06/06 07:21:54;;;;;;;4.28;1.85;;;24.20;99.90;;;;;;4128960;28;20449;-63
2023/06/06 07:23:56;;;;;;;3.15;1.95;;;24.20;99.90;;;;;;4143256;28;20669;-65
2023/06/06 07:25:57;;;;;;;3.00;1.60;;;24.00;99.90;;;;;;4128251;28;20548;-62
2023/06/06 07:27:59;;;;;;;3.88;1.33;;;23.80;99.90;;;;;;4128879;28;20034;-63
2023/06/06 07:30:12;;;;;;;10.25;2.00;;;23.40;99.90;;;;;;4128651;28;20120;-63
2023/06/06 07:32:13;;;;;;;5.15;2.10;;;23.50;99.90;;;;;;4128972;28;20073;-63
2023/06/06 07:34:14;;;;;;;6.47;1.40;;;23.60;99.90;;;;;;4128754;28;20364;-66
2023/06/06 07:36:15;;;;;;;4.40;1.90;;;23.60;99.90;;;;;;4128886;28;20112;-62
2023/06/06 07:38:16;;;;;;;3.03;1.67;;;23.40;99.90;;;;;;4128255;28;20081;-68
2023/06/06 07:40:17;;;;;;;4.32;1.42;;;23.20;99.90;;;;;;4129207;28;20023;-63
2023/06/06 07:42:20;;;;;;;5.30;2.05;;;23.20;99.90;;;;;;4128271;28;20446;-68
2023/06/06 07:44:21;;;;;;;2.78;1.58;;;23.20;99.90;;;;;;4127348;28;20128;-61
2023/06/06 07:46:22;;;;;;;6.38;1.70;;;23.30;99.90;;;;;;4128207;28;20039;-61
2023/06/06 07:48:23;;;;;;;5.85;1.88;;;23.50;99.90;;;;;;4128504;28;20425;-64
2023/06/06 07:50:27;;;;;;;3.38;1.48;;;23.80;99.90;;;;;;4128183;28;20026;-62
2023/06/06 07:52:30;;;;;;;2.40;1.60;;;23.70;99.90;;;;;;4127179;28;20105;-65
2023/06/06 07:54:31;;;;;;;1.95;1.42;;;23.60;99.90;;;;;;4128087;28;20022;-66
2023/06/06 07:56:36;;;;;;;4.47;1.30;;;23.60;99.90;;;;;;4129190;28;20553;-67
2023/06/06 07:58:41;;;;;;;2.15;1.45;;;23.80;99.90;;;;;;4127957;28;20080;-64
2023/06/06 08:00:44;;;;;;;3.53;1.30;;;23.80;99.90;;;;;;4128983;28;20093;-63
2023/06/06 08:02:46;;;;;;;3.13;1.42;;;23.50;99.90;;;;;;4126304;28;20038;-64
2023/06/06 08:04:47;;;;;;;7.15;1.83;;;23.50;99.90;;;;;;4128619;28;20035;-62
2023/06/06 08:06:48;;;;;;;2.28;1.50;;;23.60;99.90;;;;;;4128186;28;20019;-62
2023/06/06 08:08:51;;;;;;;2.25;1.67;;;23.80;99.90;;;;;;4127914;28;20128;-62
2023/06/06 08:10:53;;;;;;;5.05;2.25;;;23.70;99.90;;;;;;4128043;28;20030;-61
2023/06/06 08:12:54;;;;;;;6.22;1.60;;;23.60;99.90;;;;;;4126622;28;20085;-61
2023/06/06 08:14:55;;;;;;;3.67;1.70;;;23.50;99.90;;;;;;4129120;28;20471;-63
2023/06/06 08:16:56;;;;;;;4.40;1.27;;;23.40;99.90;;;;;;4127921;28;20097;-64
2023/06/06 08:18:57;;;;;;;4.57;1.52;;;23.50;99.90;;;;;;4128522;28;20034;-63
2023/06/06 08:20:58;;;;;;;2.55;1.30;;;23.50;99.90;;;;;;4127249;28;20046;-61
2023/06/06 08:22:59;;;;;;;4.60;1.95;;;23.60;99.90;;;;;;4128835;28;20093;-62
2023/06/06 08:25:08;;;;;;;4.45;1.83;;;23.60;99.90;;;;;;4125963;28;20030;-61
2023/06/06 08:27:10;;;;;;;9.52;2.65;;;23.60;99.90;;;;;;4128856;28;20096;-62
2023/06/06 08:29:11;;;;;;;5.60;1.70;;;23.40;99.90;;;;;;4127546;28;20086;-63
2023/06/06 08:31:14;;;;;;;3.65;1.67;;;23.10;99.90;;;;;;4128958;28;20057;-65
2023/06/06 08:33:15;;;;;;;6.13;1.88;;;23.00;99.90;;;;;;4127761;28;20554;-64
2023/06/06 08:35:19;;;;;;;1.75;1.40;;;22.80;99.90;;;;;;4128587;28;20526;-69
2023/06/06 08:37:21;;;;;;;3.97;1.40;;;22.70;99.90;;;;;;4127636;28;20078;-62
2023/06/06 08:39:22;;;;;;;4.78;1.80;;;22.80;99.90;;;;;;4127640;28;20754;-63
2023/06/06 08:41:25;;;;;;;2.75;1.73;;;22.80;99.90;;;;;;4127509;28;20042;-62
2023/06/06 08:43:27;;;;;;;5.90;1.58;;;22.90;99.90;;;;;;4128095;28;20034;-63
2023/06/06 08:45:28;;;;;;;3.83;1.73;;;23.00;99.90;;;;;;4128572;28;20051;-64
2023/06/06 08:47:32;;;;;;;4.43;1.50;;;23.10;99.90;;;;;;4127299;28;20034;-63
2023/06/06 08:49:36;;;;;;;5.80;1.58;;;23.10;99.90;;;;;;4128817;28;20433;-62
2023/06/06 08:51:37;;;;;;;5.90;1.50;;;23.20;99.90;;;;;;4127577;28;20088;-63
2023/06/06 08:53:38;;;;;;;2.55;1.25;;;23.30;99.90;;;;;;4128859;28;20348;-70
2023/06/06 08:55:40;;;;;;;2.78;1.45;;;23.40;99.90;;;;;;4127142;28;20453;-70
2023/06/06 08:57:44;;;;;;;2.88;1.10;;;23.50;99.80;;;;;;4128242;28;20108;-63
2023/06/06 08:59:45;;;;;;;9.10;1.33;;;23.40;99.80;;;;;;4127166;28;20084;-65
2023/06/06 09:01:53;;;;;;;2.42;1.55;;;23.50;99.80;;;;;;4128783;28;20034;-65
2023/06/06 09:03:56;;;;;;;2.97;1.40;;;23.60;99.60;;;;;;4126968;28;20042;-61
2023/06/06 09:06:00;;;;;;;5.28;1.67;;;23.80;99.30;;;;;;4131341;28;20042;-63
2023/06/06 09:08:02;;;;;;;4.78;1.33;;;23.80;98.90;;;;;;4130071;28;20050;-61
2023/06/06 09:10:05;;;;;;;3.28;1.30;;;23.90;98.10;;;;;;4130962;28;20054;-62
2023/06/06 09:12:09;;;;;;;2.97;0.98;;;23.80;98.20;;;;;;4130868;28;20470;-68
2023/06/06 09:14:11;;;;;;;2.05;1.05;;;23.90;98.10;;;;;;4131413;28;20042;-61
2023/06/06 09:16:14;;;;;;;2.38;0.90;;;23.90;98.30;;;;;;4130961;28;20031;-61
2023/06/06 09:18:15;;;;;;;1.77;1.33;;;23.80;98.50;;;;;;4130366;28;20077;-62
2023/06/06 09:20:17;;;;;;;4.28;1.02;;;23.90;98.30;;;;;;4130167;28;20085;-61
2023/06/06 09:22:18;;;;;;;8.30;1.30;;;23.90;98.20;;;;;;4130177;28;20022;-62
2023/06/06 09:24:19;;;;;;;1.58;0.90;;;24.00;98.50;;;;;;4130814;28;20038;-64
2023/06/06 09:26:22;;;;;;;1.92;0.98;;;24.10;98.40;;;;;;4129705;28;20042;-68
2023/06/06 09:28:39;;;;;;;1.80;1.10;;;24.20;98.10;;;;;;4131478;28;20030;-66
2023/06/06 09:30:41;;;;;;;2.80;1.30;;;23.90;97.20;;;;;;4129608;28;20057;-62
2023/06/06 09:32:43;;;;;;;4.05;1.23;;;23.90;97.60;;;;;;4130652;28;20093;-65
2023/06/06 09:34:44;;;;;;;2.90;1.05;;;23.90;97.30;;;;;;4129484;28;20038;-63
2023/06/06 09:36:45;;;;;;;4.00;0.95;;;23.80;97.30;;;;;;4130202;28;20097;-62
2023/06/06 09:38:47;;;;;;;7.40;1.73;;;23.90;97.10;;;;;;4129816;28;20081;-61
2023/06/06 09:40:50;;;;;;;3.08;1.15;;;23.80;97.00;;;;;;4131288;28;20031;-62
2023/06/06 09:42:51;;;;;;;1.88;0.85;;;23.80;96.90;;;;;;4130012;28;20093;-62
2023/06/06 09:44:52;;;;;;;4.20;1.00;;;23.80;96.70;;;;;;4130992;28;20085;-61
2023/06/06 09:47:01;;;;;;;1.92;0.98;;;23.90;96.50;;;;;;4129022;28;20034;-62
2023/06/06 09:49:03;;;;;;;1.75;0.98;;;23.90;95.70;;;;;;4130506;28;20471;-65
2023/06/06 09:51:04;;;;;;;1.60;0.80;;;23.80;95.20;;;;;;4129172;28;20097;-61
2023/06/06 09:53:06;;;;;;;1.42;0.88;;;23.80;95.10;;;;;;4130148;28;20104;-61
2023/06/06 09:55:08;;;;;;;2.25;1.00;;;23.60;95.00;;;;;;4129563;28;20042;-61
2023/06/06 09:57:13;;;;;;;6.00;1.30;;;23.50;95.20;;;;;;4129821;28;20042;-62
2023/06/06 09:59:16;;;;;;;3.15;1.00;;;23.50;95.70;;;;;;4129987;28;20089;-61
2023/06/06 10:01:17;;;;;;;3.60;1.10;;;23.50;95.50;;;;;;4129920;28;20019;-61
2023/06/06 10:03:21;;;;;;;3.30;1.00;;;23.60;95.80;;;;;;4129973;28;20054;-61
2023/06/06 10:05:23;;;;;;;3.08;1.17;;;23.60;96.00;;;;;;4129378;28;20549;-65
2023/06/06 10:07:26;;;;;;;1.75;0.85;;;23.70;95.90;;;;;;4130250;28;20101;-61
2023/06/06 10:09:27;;;;;;;2.13;1.00;;;23.70;95.60;;;;;;4129364;28;20446;-62
2023/06/06 10:11:29;;;;;;;2.75;0.80;;;23.70;95.30;;;;;;4129773;28;20030;-64
2023/06/06 10:13:31;;;;;;;1.10;0.75;;;23.80;95.20;;;;;;4129148;28;20038;-63
2023/06/06 10:15:33;;;;;;;0.90;0.82;;;23.70;95.10;;;;;;4129980;28;20175;-64
2023/06/06 10:17:40;;;;;;;3.60;1.02;;;23.50;94.90;;;;;;4129536;28;20383;-62
2023/06/06 10:19:41;;;;;;;1.23;1.05;;;23.40;95.20;;;;;;4130706;28;20042;-65
2023/06/06 10:21:44;;;;;;;6.18;1.02;;;23.20;95.70;;;;;;4128722;28;20034;-66
2023/06/06 10:23:45;;;;;;;3.63;0.75;;;23.20;95.90;;;;;;4130494;28;20080;-67
2023/06/06 10:25:47;;;;;;;2.75;0.98;;;23.10;95.80;;;;;;4128962;28;20438;-65
2023/06/06 10:28:28;;;;;;;5.82;1.25;;;23.10;96.00;;;;;;4129042;28;20038;-63
2023/06/06 10:30:32;;;;;;;2.15;0.90;;;23.10;96.50;;;;;;4129110;28;20043;-63
2023/06/06 10:32:50;;;;;;;2.95;1.05;;;23.10;96.80;;;;;;4130129;28;20089;-63
2023/06/06 10:34:54;;;;;;;3.00;1.23;;;23.10;97.20;;;;;;4129089;28;20022;-62
2023/06/06 10:36:56;;;;;;;5.18;1.20;;;23.30;97.40;;;;;;4129929;28;20039;-63